sensor_id;sensor_type;location;lat;lon;timestamp;P1;durP1;ratioP1;P2;durP2;ratioP2
58123;SDS011;46725;48.068;20.832;2022-10-16T00:01:41;20.15;;;11.15;;
58123;SDS011;46725;48.068;20.832;2022-10-16T00:04:08;18.92;;;11.05;;
58123;SDS011;46725;48.068;20.832;2022-10-16T00:06:34;18.27;;;10.40;;
58123;SDS011;46725;48.068;20.832;2022-10-16T00:09:00;20.23;;;11.57;;
58123;SDS011;46725;48.068;20.832;2022-10-16T00:11:30;17.48;;;10.68;;
58123;SDS011;46725;48.068;20.832;2022-10-16T00:13:59;19.08;;;10.88;;
58123;SDS011;46725;48.068;20.832;2022-10-16T00:16:25;18.10;;;10.65;;
58123;SDS011;46725;48.068;20.832;2022-10-16T00:18:51;22.05;;;11.30;;
58123;SDS011;46725;48.068;20.832;2022-10-16T00:21:19;20.40;;;10.80;;
58123;SDS011;46725;48.068;20.832;2022-10-16T00:23:45;18.70;;;11.38;;
58123;SDS011;46725;48.068;20.832;2022-10-16T00:26:13;18.80;;;11.77;;
58123;SDS011;46725;48.068;20.832;2022-10-16T00:28:39;15.82;;;10.35;;
58123;SDS011;46725;48.068;20.832;2022-10-16T00:31:06;20.85;;;11.75;;
58123;SDS011;46725;48.068;20.832;2022-10-16T00:33:33;19.00;;;11.30;;
58123;SDS011;46725;48.068;20.832;2022-10-16T00:35:59;17.55;;;10.45;;
58123;SDS011;46725;48.068;20.832;2022-10-16T00:38:25;20.38;;;11.27;;
58123;SDS011;46725;48.068;20.832;2022-10-16T00:40:51;18.27;;;10.75;;
58123;SDS011;46725;48.068;20.832;2022-10-16T00:46:03;16.27;;;10.48;;
58123;SDS011;46725;48.068;20.832;2022-10-16T00:48:30;18.00;;;11.40;;
58123;SDS011;46725;48.068;20.832;2022-10-16T00:50:56;18.15;;;10.73;;
58123;SDS011;46725;48.068;20.832;2022-10-16T00:53:23;21.30;;;11.25;;
58123;SDS011;46725;48.068;20.832;2022-10-16T00:55:51;21.15;;;11.23;;
58123;SDS011;46725;48.068;20.832;2022-10-16T00:58:17;21.33;;;11.82;;
58123;SDS011;46725;48.068;20.832;2022-10-16T01:00:43;21.10;;;11.73;;
58123;SDS011;46725;48.068;20.832;2022-10-16T01:03:29;25.25;;;12.38;;
58123;SDS011;46725;48.068;20.832;2022-10-16T01:06:05;19.15;;;12.05;;
58123;SDS011;46725;48.068;20.832;2022-10-16T01:08:39;23.55;;;12.25;;
58123;SDS011;46725;48.068;20.832;2022-10-16T01:11:14;20.10;;;12.55;;
58123;SDS011;46725;48.068;20.832;2022-10-16T01:13:42;21.63;;;11.73;;
58123;SDS011;46725;48.068;20.832;2022-10-16T01:18:41;21.23;;;12.10;;
58123;SDS011;46725;48.068;20.832;2022-10-16T01:26:31;21.98;;;11.60;;
58123;SDS011;46725;48.068;20.832;2022-10-16T01:29:03;19.08;;;11.25;;
58123;SDS011;46725;48.068;20.832;2022-10-16T01:31:34;17.38;;;11.20;;
58123;SDS011;46725;48.068;20.832;2022-10-16T01:36:56;21.63;;;11.85;;
58123;SDS011;46725;48.068;20.832;2022-10-16T01:39:24;20.13;;;11.73;;
58123;SDS011;46725;48.068;20.832;2022-10-16T01:41:54;19.00;;;11.90;;
58123;SDS011;46725;48.068;20.832;2022-10-16T01:44:28;22.95;;;12.85;;
58123;SDS011;46725;48.068;20.832;2022-10-16T01:46:55;22.85;;;12.68;;
58123;SDS011;46725;48.068;20.832;2022-10-16T01:49:22;19.02;;;12.43;;
58123;SDS011;46725;48.068;20.832;2022-10-16T01:51:50;22.58;;;12.35;;
58123;SDS011;46725;48.068;20.832;2022-10-16T01:54:18;21.23;;;12.75;;
58123;SDS011;46725;48.068;20.832;2022-10-16T01:56:46;25.92;;;13.55;;
58123;SDS011;46725;48.068;20.832;2022-10-16T01:59:13;22.35;;;13.65;;
58123;SDS011;46725;48.068;20.832;2022-10-16T02:01:41;19.60;;;12.27;;
58123;SDS011;46725;48.068;20.832;2022-10-16T02:04:31;23.00;;;13.95;;
58123;SDS011;46725;48.068;20.832;2022-10-16T02:06:54;24.58;;;13.48;;
58123;SDS011;46725;48.068;20.832;2022-10-16T02:09:21;21.88;;;13.20;;
58123;SDS011;46725;48.068;20.832;2022-10-16T02:11:47;24.88;;;14.85;;
58123;SDS011;46725;48.068;20.832;2022-10-16T02:14:14;25.85;;;14.50;;
58123;SDS011;46725;48.068;20.832;2022-10-16T02:16:44;23.35;;;13.95;;
58123;SDS011;46725;48.068;20.832;2022-10-16T02:19:10;23.88;;;14.52;;
58123;SDS011;46725;48.068;20.832;2022-10-16T02:21:43;26.20;;;13.77;;
58123;SDS011;46725;48.068;20.832;2022-10-16T02:26:51;22.33;;;13.43;;
58123;SDS011;46725;48.068;20.832;2022-10-16T02:29:20;22.83;;;13.98;;
58123;SDS011;46725;48.068;20.832;2022-10-16T02:31:49;21.92;;;13.20;;
58123;SDS011;46725;48.068;20.832;2022-10-16T02:34:16;24.65;;;13.18;;
58123;SDS011;46725;48.068;20.832;2022-10-16T02:36:44;23.58;;;14.23;;
58123;SDS011;46725;48.068;20.832;2022-10-16T02:39:10;21.08;;;13.20;;
58123;SDS011;46725;48.068;20.832;2022-10-16T02:41:37;22.35;;;13.60;;
58123;SDS011;46725;48.068;20.832;2022-10-16T02:44:03;22.20;;;13.13;;
58123;SDS011;46725;48.068;20.832;2022-10-16T02:46:29;21.17;;;13.10;;
58123;SDS011;46725;48.068;20.832;2022-10-16T02:48:55;22.92;;;13.10;;
58123;SDS011;46725;48.068;20.832;2022-10-16T02:51:21;23.13;;;12.88;;
58123;SDS011;46725;48.068;20.832;2022-10-16T02:53:47;22.25;;;12.90;;
58123;SDS011;46725;48.068;20.832;2022-10-16T02:56:13;22.67;;;12.15;;
58123;SDS011;46725;48.068;20.832;2022-10-16T02:58:40;23.85;;;13.27;;
58123;SDS011;46725;48.068;20.832;2022-10-16T03:01:06;24.35;;;13.02;;
58123;SDS011;46725;48.068;20.832;2022-10-16T03:03:32;22.38;;;12.30;;
58123;SDS011;46725;48.068;20.832;2022-10-16T03:05:58;20.45;;;13.00;;
58123;SDS011;46725;48.068;20.832;2022-10-16T03:08:24;22.58;;;13.75;;
58123;SDS011;46725;48.068;20.832;2022-10-16T03:10:51;22.23;;;14.50;;
58123;SDS011;46725;48.068;20.832;2022-10-16T03:13:17;20.40;;;13.02;;
58123;SDS011;46725;48.068;20.832;2022-10-16T03:15:45;22.27;;;13.43;;
58123;SDS011;46725;48.068;20.832;2022-10-16T03:18:11;25.80;;;14.05;;
58123;SDS011;46725;48.068;20.832;2022-10-16T03:20:37;21.58;;;13.05;;
58123;SDS011;46725;48.068;20.832;2022-10-16T03:23:03;24.23;;;13.63;;
58123;SDS011;46725;48.068;20.832;2022-10-16T03:25:30;25.95;;;13.32;;
58123;SDS011;46725;48.068;20.832;2022-10-16T03:27:56;23.10;;;13.82;;
58123;SDS011;46725;48.068;20.832;2022-10-16T03:30:22;22.20;;;14.02;;
58123;SDS011;46725;48.068;20.832;2022-10-16T03:32:48;21.58;;;13.63;;
58123;SDS011;46725;48.068;20.832;2022-10-16T03:35:18;23.73;;;13.48;;
58123;SDS011;46725;48.068;20.832;2022-10-16T03:37:44;20.27;;;12.20;;
58123;SDS011;46725;48.068;20.832;2022-10-16T03:40:10;23.25;;;13.43;;
58123;SDS011;46725;48.068;20.832;2022-10-16T03:42:36;24.75;;;12.77;;
58123;SDS011;46725;48.068;20.832;2022-10-16T03:45:03;21.90;;;12.52;;
58123;SDS011;46725;48.068;20.832;2022-10-16T03:47:29;22.38;;;13.13;;
58123;SDS011;46725;48.068;20.832;2022-10-16T03:49:55;20.08;;;12.65;;
58123;SDS011;46725;48.068;20.832;2022-10-16T03:52:21;25.23;;;12.98;;
58123;SDS011;46725;48.068;20.832;2022-10-16T03:54:47;21.65;;;12.73;;
58123;SDS011;46725;48.068;20.832;2022-10-16T03:57:13;23.35;;;12.45;;
58123;SDS011;46725;48.068;20.832;2022-10-16T03:59:39;22.38;;;13.75;;
58123;SDS011;46725;48.068;20.832;2022-10-16T04:02:05;24.52;;;13.90;;
58123;SDS011;46725;48.068;20.832;2022-10-16T04:04:31;22.27;;;13.65;;
58123;SDS011;46725;48.068;20.832;2022-10-16T04:06:58;27.88;;;15.50;;
58123;SDS011;46725;48.068;20.832;2022-10-16T04:09:24;24.00;;;14.43;;
58123;SDS011;46725;48.068;20.832;2022-10-16T04:11:50;21.48;;;14.45;;
58123;SDS011;46725;48.068;20.832;2022-10-16T04:14:16;23.27;;;13.15;;
58123;SDS011;46725;48.068;20.832;2022-10-16T04:16:42;28.17;;;15.25;;
58123;SDS011;46725;48.068;20.832;2022-10-16T04:19:08;23.75;;;14.88;;
58123;SDS011;46725;48.068;20.832;2022-10-16T04:21:35;23.48;;;14.77;;
58123;SDS011;46725;48.068;20.832;2022-10-16T04:24:01;25.15;;;14.73;;
58123;SDS011;46725;48.068;20.832;2022-10-16T04:26:27;23.92;;;14.27;;
58123;SDS011;46725;48.068;20.832;2022-10-16T04:28:53;28.38;;;14.52;;
58123;SDS011;46725;48.068;20.832;2022-10-16T04:31:19;21.65;;;13.68;;
58123;SDS011;46725;48.068;20.832;2022-10-16T04:33:45;23.25;;;13.95;;
58123;SDS011;46725;48.068;20.832;2022-10-16T04:36:11;23.65;;;13.60;;
58123;SDS011;46725;48.068;20.832;2022-10-16T04:38:37;26.48;;;13.73;;
58123;SDS011;46725;48.068;20.832;2022-10-16T04:41:05;23.23;;;14.63;;
58123;SDS011;46725;48.068;20.832;2022-10-16T04:43:31;25.60;;;14.35;;
58123;SDS011;46725;48.068;20.832;2022-10-16T04:45:57;23.80;;;13.18;;
58123;SDS011;46725;48.068;20.832;2022-10-16T04:48:23;25.42;;;12.05;;
58123;SDS011;46725;48.068;20.832;2022-10-16T04:50:49;22.75;;;12.82;;
58123;SDS011;46725;48.068;20.832;2022-10-16T04:53:16;22.58;;;13.10;;
58123;SDS011;46725;48.068;20.832;2022-10-16T04:55:42;24.45;;;13.48;;
58123;SDS011;46725;48.068;20.832;2022-10-16T04:58:08;24.25;;;13.93;;
58123;SDS011;46725;48.068;20.832;2022-10-16T05:00:34;20.30;;;13.20;;
58123;SDS011;46725;48.068;20.832;2022-10-16T05:03:01;25.15;;;14.07;;
58123;SDS011;46725;48.068;20.832;2022-10-16T05:05:30;22.83;;;13.27;;
58123;SDS011;46725;48.068;20.832;2022-10-16T05:07:56;26.02;;;14.45;;
58123;SDS011;46725;48.068;20.832;2022-10-16T05:10:23;20.63;;;12.98;;
58123;SDS011;46725;48.068;20.832;2022-10-16T05:12:49;24.50;;;13.48;;
58123;SDS011;46725;48.068;20.832;2022-10-16T05:15:16;22.77;;;13.77;;
58123;SDS011;46725;48.068;20.832;2022-10-16T05:17:42;22.98;;;12.90;;
58123;SDS011;46725;48.068;20.832;2022-10-16T05:20:08;21.30;;;13.23;;
58123;SDS011;46725;48.068;20.832;2022-10-16T05:22:34;21.35;;;12.48;;
58123;SDS011;46725;48.068;20.832;2022-10-16T05:25:00;20.35;;;12.57;;
58123;SDS011;46725;48.068;20.832;2022-10-16T05:27:26;22.33;;;13.68;;
58123;SDS011;46725;48.068;20.832;2022-10-16T05:29:52;23.25;;;13.15;;
58123;SDS011;46725;48.068;20.832;2022-10-16T05:32:18;22.98;;;13.68;;
58123;SDS011;46725;48.068;20.832;2022-10-16T05:34:45;28.38;;;13.85;;
58123;SDS011;46725;48.068;20.832;2022-10-16T05:37:11;24.63;;;13.57;;
58123;SDS011;46725;48.068;20.832;2022-10-16T05:39:37;20.65;;;12.38;;
58123;SDS011;46725;48.068;20.832;2022-10-16T05:42:04;22.67;;;13.63;;
58123;SDS011;46725;48.068;20.832;2022-10-16T05:44:30;23.30;;;14.35;;
58123;SDS011;46725;48.068;20.832;2022-10-16T05:46:56;20.52;;;12.90;;
58123;SDS011;46725;48.068;20.832;2022-10-16T05:49:22;23.17;;;13.85;;
58123;SDS011;46725;48.068;20.832;2022-10-16T05:51:48;26.92;;;13.65;;
58123;SDS011;46725;48.068;20.832;2022-10-16T05:54:14;21.50;;;13.18;;
58123;SDS011;46725;48.068;20.832;2022-10-16T05:56:41;21.08;;;14.02;;
58123;SDS011;46725;48.068;20.832;2022-10-16T05:59:07;23.90;;;14.15;;
58123;SDS011;46725;48.068;20.832;2022-10-16T06:01:33;24.02;;;13.98;;
58123;SDS011;46725;48.068;20.832;2022-10-16T06:04:00;25.70;;;13.40;;
58123;SDS011;46725;48.068;20.832;2022-10-16T06:06:26;24.02;;;13.75;;
58123;SDS011;46725;48.068;20.832;2022-10-16T06:08:53;23.58;;;12.65;;
58123;SDS011;46725;48.068;20.832;2022-10-16T06:11:21;26.48;;;14.40;;
58123;SDS011;46725;48.068;20.832;2022-10-16T06:13:51;21.08;;;13.52;;
58123;SDS011;46725;48.068;20.832;2022-10-16T06:16:18;23.08;;;13.82;;
58123;SDS011;46725;48.068;20.832;2022-10-16T06:18:44;21.13;;;12.75;;
58123;SDS011;46725;48.068;20.832;2022-10-16T06:21:11;24.88;;;13.70;;
58123;SDS011;46725;48.068;20.832;2022-10-16T06:23:38;23.30;;;13.23;;
58123;SDS011;46725;48.068;20.832;2022-10-16T06:26:05;20.80;;;13.32;;
58123;SDS011;46725;48.068;20.832;2022-10-16T06:28:31;22.38;;;13.40;;
58123;SDS011;46725;48.068;20.832;2022-10-16T06:31:01;24.33;;;13.00;;
58123;SDS011;46725;48.068;20.832;2022-10-16T06:33:27;22.38;;;13.05;;
58123;SDS011;46725;48.068;20.832;2022-10-16T06:35:53;21.20;;;13.02;;
58123;SDS011;46725;48.068;20.832;2022-10-16T06:38:19;25.13;;;14.30;;
58123;SDS011;46725;48.068;20.832;2022-10-16T06:40:45;22.05;;;13.48;;
58123;SDS011;46725;48.068;20.832;2022-10-16T06:43:11;19.73;;;13.38;;
58123;SDS011;46725;48.068;20.832;2022-10-16T06:45:37;19.30;;;12.23;;
58123;SDS011;46725;48.068;20.832;2022-10-16T06:48:03;19.90;;;12.55;;
58123;SDS011;46725;48.068;20.832;2022-10-16T06:50:29;20.58;;;12.27;;
58123;SDS011;46725;48.068;20.832;2022-10-16T06:52:55;23.80;;;12.48;;
58123;SDS011;46725;48.068;20.832;2022-10-16T06:55:21;20.23;;;11.82;;
58123;SDS011;46725;48.068;20.832;2022-10-16T06:57:47;20.35;;;11.85;;
58123;SDS011;46725;48.068;20.832;2022-10-16T07:00:13;19.67;;;11.25;;
58123;SDS011;46725;48.068;20.832;2022-10-16T07:02:39;18.95;;;11.90;;
58123;SDS011;46725;48.068;20.832;2022-10-16T07:05:06;21.45;;;12.23;;
58123;SDS011;46725;48.068;20.832;2022-10-16T07:07:32;19.60;;;12.98;;
58123;SDS011;46725;48.068;20.832;2022-10-16T07:09:58;22.20;;;12.07;;
58123;SDS011;46725;48.068;20.832;2022-10-16T07:12:24;19.48;;;12.27;;
58123;SDS011;46725;48.068;20.832;2022-10-16T07:14:50;17.65;;;11.65;;
58123;SDS011;46725;48.068;20.832;2022-10-16T07:17:17;22.00;;;11.40;;
58123;SDS011;46725;48.068;20.832;2022-10-16T07:19:44;17.38;;;10.65;;
58123;SDS011;46725;48.068;20.832;2022-10-16T07:22:10;21.42;;;11.65;;
58123;SDS011;46725;48.068;20.832;2022-10-16T07:24:36;20.95;;;11.63;;
58123;SDS011;46725;48.068;20.832;2022-10-16T07:27:02;15.55;;;9.63;;
58123;SDS011;46725;48.068;20.832;2022-10-16T07:29:28;23.52;;;10.70;;
58123;SDS011;46725;48.068;20.832;2022-10-16T07:31:57;17.42;;;9.50;;
58123;SDS011;46725;48.068;20.832;2022-10-16T07:34:23;17.33;;;10.10;;
58123;SDS011;46725;48.068;20.832;2022-10-16T07:36:49;18.02;;;10.18;;
58123;SDS011;46725;48.068;20.832;2022-10-16T07:39:16;13.77;;;9.48;;
58123;SDS011;46725;48.068;20.832;2022-10-16T07:41:42;15.65;;;10.25;;
58123;SDS011;46725;48.068;20.832;2022-10-16T07:44:08;20.23;;;10.63;;
58123;SDS011;46725;48.068;20.832;2022-10-16T07:46:34;21.63;;;10.77;;
58123;SDS011;46725;48.068;20.832;2022-10-16T07:49:01;21.38;;;11.05;;
58123;SDS011;46725;48.068;20.832;2022-10-16T07:51:27;19.20;;;11.35;;
58123;SDS011;46725;48.068;20.832;2022-10-16T07:53:53;18.67;;;10.25;;
58123;SDS011;46725;48.068;20.832;2022-10-16T07:56:20;21.13;;;11.10;;
58123;SDS011;46725;48.068;20.832;2022-10-16T07:58:46;19.25;;;10.90;;
58123;SDS011;46725;48.068;20.832;2022-10-16T08:01:15;18.48;;;10.35;;
58123;SDS011;46725;48.068;20.832;2022-10-16T08:03:42;17.98;;;9.73;;
58123;SDS011;46725;48.068;20.832;2022-10-16T08:06:08;15.82;;;8.27;;
58123;SDS011;46725;48.068;20.832;2022-10-16T08:08:34;14.65;;;9.43;;
58123;SDS011;46725;48.068;20.832;2022-10-16T08:11:00;12.93;;;7.78;;
58123;SDS011;46725;48.068;20.832;2022-10-16T08:13:28;15.65;;;9.15;;
58123;SDS011;46725;48.068;20.832;2022-10-16T08:15:54;15.00;;;8.25;;
58123;SDS011;46725;48.068;20.832;2022-10-16T08:18:21;14.27;;;8.30;;
58123;SDS011;46725;48.068;20.832;2022-10-16T08:20:47;14.90;;;7.68;;
58123;SDS011;46725;48.068;20.832;2022-10-16T08:23:13;14.63;;;8.00;;
58123;SDS011;46725;48.068;20.832;2022-10-16T08:25:39;15.38;;;7.95;;
58123;SDS011;46725;48.068;20.832;2022-10-16T08:28:06;17.17;;;9.60;;
58123;SDS011;46725;48.068;20.832;2022-10-16T08:30:33;15.38;;;8.02;;
58123;SDS011;46725;48.068;20.832;2022-10-16T08:32:59;15.77;;;8.25;;
58123;SDS011;46725;48.068;20.832;2022-10-16T08:35:25;13.18;;;7.53;;
58123;SDS011;46725;48.068;20.832;2022-10-16T08:37:51;12.90;;;6.75;;
58123;SDS011;46725;48.068;20.832;2022-10-16T08:40:19;15.02;;;8.02;;
58123;SDS011;46725;48.068;20.832;2022-10-16T08:50:27;12.10;;;7.22;;
58123;SDS011;46725;48.068;20.832;2022-10-16T08:52:54;16.63;;;9.27;;
58123;SDS011;46725;48.068;20.832;2022-10-16T08:57:53;11.73;;;6.63;;
58123;SDS011;46725;48.068;20.832;2022-10-16T09:00:19;13.68;;;7.28;;
58123;SDS011;46725;48.068;20.832;2022-10-16T09:02:48;15.07;;;6.93;;
58123;SDS011;46725;48.068;20.832;2022-10-16T09:13:14;12.88;;;7.05;;
58123;SDS011;46725;48.068;20.832;2022-10-16T09:15:46;14.27;;;6.57;;
58123;SDS011;46725;48.068;20.832;2022-10-16T09:18:21;11.90;;;6.40;;
58123;SDS011;46725;48.068;20.832;2022-10-16T09:20:49;11.05;;;6.70;;
58123;SDS011;46725;48.068;20.832;2022-10-16T09:23:18;10.98;;;6.07;;
58123;SDS011;46725;48.068;20.832;2022-10-16T09:25:47;9.43;;;5.65;;
58123;SDS011;46725;48.068;20.832;2022-10-16T09:28:14;13.93;;;6.53;;
58123;SDS011;46725;48.068;20.832;2022-10-16T09:30:41;13.65;;;6.47;;
58123;SDS011;46725;48.068;20.832;2022-10-16T09:33:07;14.45;;;6.40;;
58123;SDS011;46725;48.068;20.832;2022-10-16T09:35:38;13.60;;;6.50;;
58123;SDS011;46725;48.068;20.832;2022-10-16T09:38:05;7.35;;;5.15;;
58123;SDS011;46725;48.068;20.832;2022-10-16T09:40:38;7.80;;;5.22;;
58123;SDS011;46725;48.068;20.832;2022-10-16T09:48:33;10.40;;;5.47;;
58123;SDS011;46725;48.068;20.832;2022-10-16T09:51:01;11.32;;;5.20;;
58123;SDS011;46725;48.068;20.832;2022-10-16T09:56:25;11.48;;;4.95;;
58123;SDS011;46725;48.068;20.832;2022-10-16T09:58:55;10.25;;;5.10;;
58123;SDS011;46725;48.068;20.832;2022-10-16T10:01:22;8.77;;;4.82;;
58123;SDS011;46725;48.068;20.832;2022-10-16T10:03:49;8.48;;;4.63;;
58123;SDS011;46725;48.068;20.832;2022-10-16T10:08:56;13.75;;;5.32;;
58123;SDS011;46725;48.068;20.832;2022-10-16T10:16:39;10.48;;;5.05;;
58123;SDS011;46725;48.068;20.832;2022-10-16T10:19:09;12.77;;;5.57;;
58123;SDS011;46725;48.068;20.832;2022-10-16T10:21:39;10.98;;;5.45;;
58123;SDS011;46725;48.068;20.832;2022-10-16T10:24:05;11.02;;;5.85;;
58123;SDS011;46725;48.068;20.832;2022-10-16T10:26:31;10.98;;;5.47;;
58123;SDS011;46725;48.068;20.832;2022-10-16T10:29:06;10.23;;;5.72;;
58123;SDS011;46725;48.068;20.832;2022-10-16T10:39:59;12.85;;;7.05;;
58123;SDS011;46725;48.068;20.832;2022-10-16T10:42:35;13.45;;;6.63;;
58123;SDS011;46725;48.068;20.832;2022-10-16T10:50:28;9.52;;;5.00;;
58123;SDS011;46725;48.068;20.832;2022-10-16T11:01:17;10.70;;;4.82;;
58123;SDS011;46725;48.068;20.832;2022-10-16T11:14:26;9.10;;;5.45;;
58123;SDS011;46725;48.068;20.832;2022-10-16T11:16:56;9.73;;;7.03;;
58123;SDS011;46725;48.068;20.832;2022-10-16T11:22:04;8.63;;;5.90;;
58123;SDS011;46725;48.068;20.832;2022-10-16T11:24:46;10.98;;;6.95;;
58123;SDS011;46725;48.068;20.832;2022-10-16T11:27:19;8.30;;;4.90;;
58123;SDS011;46725;48.068;20.832;2022-10-16T11:32:18;8.82;;;5.10;;
58123;SDS011;46725;48.068;20.832;2022-10-16T11:34:47;11.40;;;6.10;;
58123;SDS011;46725;48.068;20.832;2022-10-16T11:37:14;11.15;;;5.78;;
58123;SDS011;46725;48.068;20.832;2022-10-16T11:39:42;10.80;;;5.80;;
58123;SDS011;46725;48.068;20.832;2022-10-16T11:42:10;10.50;;;5.53;;
58123;SDS011;46725;48.068;20.832;2022-10-16T11:47:57;10.18;;;5.68;;
58123;SDS011;46725;48.068;20.832;2022-10-16T11:55:36;12.40;;;5.82;;
58123;SDS011;46725;48.068;20.832;2022-10-16T11:58:06;8.90;;;5.10;;
58123;SDS011;46725;48.068;20.832;2022-10-16T12:00:37;10.18;;;6.10;;
58123;SDS011;46725;48.068;20.832;2022-10-16T12:03:17;10.15;;;5.18;;
58123;SDS011;46725;48.068;20.832;2022-10-16T12:08:28;9.85;;;6.18;;
58123;SDS011;46725;48.068;20.832;2022-10-16T12:11:05;9.27;;;5.15;;
58123;SDS011;46725;48.068;20.832;2022-10-16T12:13:33;11.10;;;5.47;;
58123;SDS011;46725;48.068;20.832;2022-10-16T12:18:34;10.43;;;5.38;;
58123;SDS011;46725;48.068;20.832;2022-10-16T12:21:00;10.50;;;4.45;;
58123;SDS011;46725;48.068;20.832;2022-10-16T12:23:31;8.82;;;4.45;;
58123;SDS011;46725;48.068;20.832;2022-10-16T12:25:58;7.38;;;4.97;;
58123;SDS011;46725;48.068;20.832;2022-10-16T12:28:31;9.52;;;4.93;;
58123;SDS011;46725;48.068;20.832;2022-10-16T12:31:04;16.30;;;5.50;;
58123;SDS011;46725;48.068;20.832;2022-10-16T12:33:32;7.80;;;4.50;;
58123;SDS011;46725;48.068;20.832;2022-10-16T12:35:59;10.25;;;4.60;;
58123;SDS011;46725;48.068;20.832;2022-10-16T12:43:25;11.35;;;4.70;;
58123;SDS011;46725;48.068;20.832;2022-10-16T12:46:02;8.70;;;4.78;;
58123;SDS011;46725;48.068;20.832;2022-10-16T12:48:28;8.43;;;5.07;;
58123;SDS011;46725;48.068;20.832;2022-10-16T12:50:55;8.82;;;4.95;;
58123;SDS011;46725;48.068;20.832;2022-10-16T12:53:25;10.23;;;5.43;;
58123;SDS011;46725;48.068;20.832;2022-10-16T13:06:06;11.25;;;4.68;;
58123;SDS011;46725;48.068;20.832;2022-10-16T13:27:07;7.32;;;4.43;;
58123;SDS011;46725;48.068;20.832;2022-10-16T13:29:36;9.13;;;4.70;;
58123;SDS011;46725;48.068;20.832;2022-10-16T13:32:07;7.50;;;4.43;;
58123;SDS011;46725;48.068;20.832;2022-10-16T13:34:41;13.55;;;4.45;;
58123;SDS011;46725;48.068;20.832;2022-10-16T13:37:15;10.50;;;4.80;;
58123;SDS011;46725;48.068;20.832;2022-10-16T13:39:42;10.40;;;4.65;;
58123;SDS011;46725;48.068;20.832;2022-10-16T13:42:12;8.55;;;4.70;;
58123;SDS011;46725;48.068;20.832;2022-10-16T13:44:40;9.20;;;4.72;;
58123;SDS011;46725;48.068;20.832;2022-10-16T13:50:04;7.15;;;4.20;;
58123;SDS011;46725;48.068;20.832;2022-10-16T13:52:31;8.75;;;4.38;;
58123;SDS011;46725;48.068;20.832;2022-10-16T13:54:57;7.82;;;4.53;;
58123;SDS011;46725;48.068;20.832;2022-10-16T13:57:24;8.45;;;4.35;;
58123;SDS011;46725;48.068;20.832;2022-10-16T13:59:50;8.65;;;4.22;;
58123;SDS011;46725;48.068;20.832;2022-10-16T14:04:43;7.63;;;4.07;;
58123;SDS011;46725;48.068;20.832;2022-10-16T14:07:13;9.00;;;4.10;;
58123;SDS011;46725;48.068;20.832;2022-10-16T14:09:40;12.63;;;4.05;;
58123;SDS011;46725;48.068;20.832;2022-10-16T14:12:10;7.20;;;4.00;;
58123;SDS011;46725;48.068;20.832;2022-10-16T14:14:41;10.95;;;4.60;;
58123;SDS011;46725;48.068;20.832;2022-10-16T14:17:42;10.77;;;4.68;;
58123;SDS011;46725;48.068;20.832;2022-10-16T14:20:02;9.90;;;4.47;;
58123;SDS011;46725;48.068;20.832;2022-10-16T14:22:36;9.80;;;4.28;;
58123;SDS011;46725;48.068;20.832;2022-10-16T14:25:16;8.55;;;4.72;;
58123;SDS011;46725;48.068;20.832;2022-10-16T14:30:25;14.50;;;4.57;;
58123;SDS011;46725;48.068;20.832;2022-10-16T14:32:58;7.38;;;4.57;;
58123;SDS011;46725;48.068;20.832;2022-10-16T14:35:26;10.73;;;4.22;;
58123;SDS011;46725;48.068;20.832;2022-10-16T14:37:53;9.07;;;4.30;;
58123;SDS011;46725;48.068;20.832;2022-10-16T14:40:20;7.28;;;4.03;;
58123;SDS011;46725;48.068;20.832;2022-10-16T14:42:46;9.07;;;4.45;;
58123;SDS011;46725;48.068;20.832;2022-10-16T14:45:12;7.30;;;4.10;;
58123;SDS011;46725;48.068;20.832;2022-10-16T14:48:00;8.23;;;5.22;;
58123;SDS011;46725;48.068;20.832;2022-10-16T14:50:27;9.82;;;5.47;;
58123;SDS011;46725;48.068;20.832;2022-10-16T14:52:53;11.43;;;5.43;;
58123;SDS011;46725;48.068;20.832;2022-10-16T14:55:20;11.57;;;5.90;;
58123;SDS011;46725;48.068;20.832;2022-10-16T14:57:46;8.23;;;5.10;;
58123;SDS011;46725;48.068;20.832;2022-10-16T15:00:20;8.20;;;4.80;;
58123;SDS011;46725;48.068;20.832;2022-10-16T15:02:47;12.75;;;5.68;;
58123;SDS011;46725;48.068;20.832;2022-10-16T15:07:40;11.23;;;4.72;;
58123;SDS011;46725;48.068;20.832;2022-10-16T15:10:06;9.25;;;5.35;;
58123;SDS011;46725;48.068;20.832;2022-10-16T15:12:33;8.35;;;5.10;;
58123;SDS011;46725;48.068;20.832;2022-10-16T15:14:59;9.77;;;6.05;;
58123;SDS011;46725;48.068;20.832;2022-10-16T15:17:25;9.93;;;6.93;;
58123;SDS011;46725;48.068;20.832;2022-10-16T15:19:51;13.55;;;7.82;;
58123;SDS011;46725;48.068;20.832;2022-10-16T15:22:17;10.10;;;6.72;;
58123;SDS011;46725;48.068;20.832;2022-10-16T15:24:43;9.57;;;5.63;;
58123;SDS011;46725;48.068;20.832;2022-10-16T15:27:09;9.00;;;5.20;;
58123;SDS011;46725;48.068;20.832;2022-10-16T15:29:35;10.48;;;5.72;;
58123;SDS011;46725;48.068;20.832;2022-10-16T15:32:01;8.15;;;5.72;;
58123;SDS011;46725;48.068;20.832;2022-10-16T15:34:27;10.43;;;4.80;;
58123;SDS011;46725;48.068;20.832;2022-10-16T15:36:54;7.78;;;4.88;;
58123;SDS011;46725;48.068;20.832;2022-10-16T15:39:22;13.38;;;5.00;;
58123;SDS011;46725;48.068;20.832;2022-10-16T15:41:48;7.60;;;4.90;;
58123;SDS011;46725;48.068;20.832;2022-10-16T15:44:19;10.73;;;5.15;;
58123;SDS011;46725;48.068;20.832;2022-10-16T15:46:45;7.60;;;4.53;;
58123;SDS011;46725;48.068;20.832;2022-10-16T15:49:11;10.90;;;5.22;;
58123;SDS011;46725;48.068;20.832;2022-10-16T15:51:38;10.07;;;5.07;;
58123;SDS011;46725;48.068;20.832;2022-10-16T15:54:04;9.25;;;5.38;;
58123;SDS011;46725;48.068;20.832;2022-10-16T15:56:30;16.45;;;5.80;;
58123;SDS011;46725;48.068;20.832;2022-10-16T15:58:58;14.88;;;7.00;;
58123;SDS011;46725;48.068;20.832;2022-10-16T16:01:24;14.95;;;6.68;;
58123;SDS011;46725;48.068;20.832;2022-10-16T16:03:54;11.88;;;6.93;;
58123;SDS011;46725;48.068;20.832;2022-10-16T16:06:21;14.75;;;7.28;;
58123;SDS011;46725;48.068;20.832;2022-10-16T16:08:48;15.00;;;6.68;;
58123;SDS011;46725;48.068;20.832;2022-10-16T16:11:15;12.35;;;6.43;;
58123;SDS011;46725;48.068;20.832;2022-10-16T16:13:41;12.32;;;6.93;;
58123;SDS011;46725;48.068;20.832;2022-10-16T16:16:08;15.85;;;9.27;;
58123;SDS011;46725;48.068;20.832;2022-10-16T16:18:35;15.15;;;9.65;;
58123;SDS011;46725;48.068;20.832;2022-10-16T16:21:01;23.27;;;12.68;;
58123;SDS011;46725;48.068;20.832;2022-10-16T16:23:27;30.58;;;15.05;;
58123;SDS011;46725;48.068;20.832;2022-10-16T16:28:28;23.92;;;13.05;;
58123;SDS011;46725;48.068;20.832;2022-10-16T16:30:55;25.48;;;13.85;;
58123;SDS011;46725;48.068;20.832;2022-10-16T16:33:21;27.27;;;14.48;;
58123;SDS011;46725;48.068;20.832;2022-10-16T16:35:47;35.15;;;17.60;;
58123;SDS011;46725;48.068;20.832;2022-10-16T16:38:14;34.70;;;16.02;;
58123;SDS011;46725;48.068;20.832;2022-10-16T16:40:40;36.25;;;16.77;;
58123;SDS011;46725;48.068;20.832;2022-10-16T16:43:06;36.70;;;17.67;;
58123;SDS011;46725;48.068;20.832;2022-10-16T16:45:35;38.75;;;17.77;;
58123;SDS011;46725;48.068;20.832;2022-10-16T16:48:01;36.63;;;18.10;;